sensor_id;sensor_type;location;lat;lon;timestamp;P1;durP1;ratioP1;P2;durP2;ratioP2
23608;SDS011;11982;50.810;4.442;2022-12-18T00:01:18;115.78;;;46.92;;
23608;SDS011;11982;50.810;4.442;2022-12-18T00:03:56;110.72;;;45.08;;
23608;SDS011;11982;50.810;4.442;2022-12-18T00:06:23;117.45;;;46.70;;
23608;SDS011;11982;50.810;4.442;2022-12-18T00:08:50;105.20;;;44.35;;
23608;SDS011;11982;50.810;4.442;2022-12-18T00:11:20;96.10;;;41.45;;
23608;SDS011;11982;50.810;4.442;2022-12-18T00:13:47;107.55;;;42.53;;
23608;SDS011;11982;50.810;4.442;2022-12-18T00:16:18;99.28;;;43.22;;
23608;SDS011;11982;50.810;4.442;2022-12-18T00:18:46;101.72;;;42.47;;
23608;SDS011;11982;50.810;4.442;2022-12-18T00:21:16;100.28;;;43.40;;
23608;SDS011;11982;50.810;4.442;2022-12-18T00:23:42;113.53;;;45.10;;
23608;SDS011;11982;50.810;4.442;2022-12-18T00:26:13;106.60;;;43.72;;
23608;SDS011;11982;50.810;4.442;2022-12-18T00:28:41;102.30;;;44.55;;
23608;SDS011;11982;50.810;4.442;2022-12-18T00:31:11;102.05;;;43.03;;
23608;SDS011;11982;50.810;4.442;2022-12-18T00:33:39;93.13;;;38.15;;
23608;SDS011;11982;50.810;4.442;2022-12-18T00:36:06;94.07;;;38.47;;
23608;SDS011;11982;50.810;4.442;2022-12-18T00:38:37;92.35;;;37.53;;
23608;SDS011;11982;50.810;4.442;2022-12-18T00:41:03;97.05;;;38.72;;
23608;SDS011;11982;50.810;4.442;2022-12-18T00:43:30;87.00;;;36.97;;
23608;SDS011;11982;50.810;4.442;2022-12-18T00:45:55;86.80;;;34.50;;
23608;SDS011;11982;50.810;4.442;2022-12-18T00:48:21;83.03;;;34.72;;
23608;SDS011;11982;50.810;4.442;2022-12-18T00:50:48;76.28;;;33.08;;
23608;SDS011;11982;50.810;4.442;2022-12-18T00:53:14;81.63;;;29.70;;
23608;SDS011;11982;50.810;4.442;2022-12-18T00:55:40;72.45;;;29.25;;
23608;SDS011;11982;50.810;4.442;2022-12-18T00:58:07;70.10;;;28.77;;
23608;SDS011;11982;50.810;4.442;2022-12-18T01:00:34;70.93;;;28.98;;
23608;SDS011;11982;50.810;4.442;2022-12-18T01:03:00;73.15;;;29.58;;
23608;SDS011;11982;50.810;4.442;2022-12-18T01:05:25;71.30;;;28.42;;
23608;SDS011;11982;50.810;4.442;2022-12-18T01:07:52;61.25;;;26.15;;
23608;SDS011;11982;50.810;4.442;2022-12-18T01:10:18;62.97;;;27.88;;
23608;SDS011;11982;50.810;4.442;2022-12-18T01:12:43;62.25;;;26.45;;
23608;SDS011;11982;50.810;4.442;2022-12-18T01:15:10;64.07;;;26.35;;
23608;SDS011;11982;50.810;4.442;2022-12-18T01:17:37;63.97;;;27.55;;
23608;SDS011;11982;50.810;4.442;2022-12-18T01:20:03;70.97;;;28.80;;
23608;SDS011;11982;50.810;4.442;2022-12-18T01:22:29;63.40;;;27.77;;
23608;SDS011;11982;50.810;4.442;2022-12-18T01:24:54;74.07;;;32.65;;
23608;SDS011;11982;50.810;4.442;2022-12-18T01:27:20;77.93;;;37.60;;
23608;SDS011;11982;50.810;4.442;2022-12-18T01:29:46;78.22;;;39.00;;
23608;SDS011;11982;50.810;4.442;2022-12-18T01:32:11;73.95;;;33.55;;
23608;SDS011;11982;50.810;4.442;2022-12-18T01:34:37;65.32;;;29.85;;
23608;SDS011;11982;50.810;4.442;2022-12-18T01:37:03;63.55;;;27.05;;
23608;SDS011;11982;50.810;4.442;2022-12-18T01:39:30;71.07;;;28.80;;
23608;SDS011;11982;50.810;4.442;2022-12-18T01:42:00;62.83;;;27.60;;
23608;SDS011;11982;50.810;4.442;2022-12-18T01:47:21;62.38;;;26.95;;
23608;SDS011;11982;50.810;4.442;2022-12-18T01:49:52;61.97;;;27.75;;
23608;SDS011;11982;50.810;4.442;2022-12-18T01:52:19;70.55;;;28.85;;
23608;SDS011;11982;50.810;4.442;2022-12-18T01:54:46;68.50;;;27.70;;
23608;SDS011;11982;50.810;4.442;2022-12-18T01:57:13;67.32;;;28.77;;
23608;SDS011;11982;50.810;4.442;2022-12-18T01:59:39;69.95;;;28.23;;
23608;SDS011;11982;50.810;4.442;2022-12-18T02:02:07;59.88;;;26.25;;
23608;SDS011;11982;50.810;4.442;2022-12-18T02:04:33;65.15;;;26.10;;
23608;SDS011;11982;50.810;4.442;2022-12-18T02:12:42;121.15;;;42.00;;
23608;SDS011;11982;50.810;4.442;2022-12-18T02:15:15;78.15;;;32.30;;
23608;SDS011;11982;50.810;4.442;2022-12-18T02:17:51;72.95;;;30.77;;
23608;SDS011;11982;50.810;4.442;2022-12-18T02:22:55;70.28;;;29.98;;
23608;SDS011;11982;50.810;4.442;2022-12-18T02:28:23;69.97;;;29.70;;
23608;SDS011;11982;50.810;4.442;2022-12-18T02:30:50;71.90;;;28.67;;
23608;SDS011;11982;50.810;4.442;2022-12-18T02:33:21;63.90;;;27.83;;
23608;SDS011;11982;50.810;4.442;2022-12-18T02:35:48;63.15;;;27.15;;
23608;SDS011;11982;50.810;4.442;2022-12-18T02:38:16;62.45;;;26.63;;
23608;SDS011;11982;50.810;4.442;2022-12-18T02:40:43;64.82;;;27.80;;
23608;SDS011;11982;50.810;4.442;2022-12-18T02:43:11;67.75;;;27.08;;
23608;SDS011;11982;50.810;4.442;2022-12-18T02:45:55;62.55;;;25.83;;
23608;SDS011;11982;50.810;4.442;2022-12-18T02:48:24;65.50;;;25.95;;
23608;SDS011;11982;50.810;4.442;2022-12-18T02:51:03;62.78;;;26.98;;
23608;SDS011;11982;50.810;4.442;2022-12-18T02:53:45;71.07;;;28.58;;
23608;SDS011;11982;50.810;4.442;2022-12-18T02:56:21;62.05;;;25.75;;
23608;SDS011;11982;50.810;4.442;2022-12-18T02:58:57;66.10;;;27.23;;
23608;SDS011;11982;50.810;4.442;2022-12-18T03:01:33;70.40;;;28.90;;
23608;SDS011;11982;50.810;4.442;2022-12-18T03:04:25;69.15;;;27.15;;
23608;SDS011;11982;50.810;4.442;2022-12-18T03:06:57;59.45;;;25.52;;
23608;SDS011;11982;50.810;4.442;2022-12-18T03:09:34;65.45;;;25.58;;
23608;SDS011;11982;50.810;4.442;2022-12-18T03:12:27;64.18;;;26.58;;
23608;SDS011;11982;50.810;4.442;2022-12-18T03:17:25;61.47;;;24.38;;
23608;SDS011;11982;50.810;4.442;2022-12-18T03:19:52;57.45;;;23.75;;
23608;SDS011;11982;50.810;4.442;2022-12-18T03:22:22;58.60;;;23.95;;
23608;SDS011;11982;50.810;4.442;2022-12-18T03:24:51;55.60;;;23.05;;
23608;SDS011;11982;50.810;4.442;2022-12-18T03:27:19;55.75;;;22.48;;
23608;SDS011;11982;50.810;4.442;2022-12-18T03:29:49;56.00;;;21.88;;
23608;SDS011;11982;50.810;4.442;2022-12-18T03:32:23;55.45;;;22.13;;
23608;SDS011;11982;50.810;4.442;2022-12-18T03:34:53;54.17;;;21.90;;
23608;SDS011;11982;50.810;4.442;2022-12-18T03:37:23;50.83;;;21.63;;
23608;SDS011;11982;50.810;4.442;2022-12-18T03:39:49;49.38;;;20.80;;
23608;SDS011;11982;50.810;4.442;2022-12-18T03:44:54;61.00;;;23.85;;
23608;SDS011;11982;50.810;4.442;2022-12-18T03:50:57;53.35;;;22.50;;
23608;SDS011;11982;50.810;4.442;2022-12-18T03:56:00;50.70;;;21.23;;
23608;SDS011;11982;50.810;4.442;2022-12-18T03:58:27;52.38;;;22.13;;
23608;SDS011;11982;50.810;4.442;2022-12-18T04:00:55;53.95;;;21.67;;
23608;SDS011;11982;50.810;4.442;2022-12-18T04:03:24;48.42;;;20.85;;
23608;SDS011;11982;50.810;4.442;2022-12-18T04:05:52;44.90;;;20.63;;
23608;SDS011;11982;50.810;4.442;2022-12-18T04:08:19;52.42;;;19.65;;
23608;SDS011;11982;50.810;4.442;2022-12-18T04:10:46;50.08;;;21.48;;
23608;SDS011;11982;50.810;4.442;2022-12-18T04:13:12;46.95;;;19.90;;
23608;SDS011;11982;50.810;4.442;2022-12-18T04:15:46;47.30;;;19.90;;
23608;SDS011;11982;50.810;4.442;2022-12-18T04:18:11;45.70;;;19.23;;
23608;SDS011;11982;50.810;4.442;2022-12-18T04:20:37;48.40;;;20.10;;
23608;SDS011;11982;50.810;4.442;2022-12-18T04:23:02;50.85;;;21.08;;
23608;SDS011;11982;50.810;4.442;2022-12-18T04:25:28;50.17;;;20.70;;
23608;SDS011;11982;50.810;4.442;2022-12-18T04:27:54;50.05;;;20.75;;
23608;SDS011;11982;50.810;4.442;2022-12-18T04:30:19;46.85;;;21.27;;
23608;SDS011;11982;50.810;4.442;2022-12-18T04:32:45;51.28;;;20.75;;
23608;SDS011;11982;50.810;4.442;2022-12-18T04:35:10;49.10;;;20.95;;
23608;SDS011;11982;50.810;4.442;2022-12-18T04:37:36;47.53;;;20.83;;
23608;SDS011;11982;50.810;4.442;2022-12-18T04:40:02;55.53;;;20.42;;
23608;SDS011;11982;50.810;4.442;2022-12-18T04:42:29;51.92;;;20.45;;
23608;SDS011;11982;50.810;4.442;2022-12-18T04:44:55;55.58;;;21.08;;
23608;SDS011;11982;50.810;4.442;2022-12-18T04:47:20;54.33;;;21.80;;
23608;SDS011;11982;50.810;4.442;2022-12-18T04:49:46;51.25;;;21.65;;
23608;SDS011;11982;50.810;4.442;2022-12-18T04:52:12;54.20;;;20.77;;
23608;SDS011;11982;50.810;4.442;2022-12-18T04:54:37;46.80;;;19.95;;
23608;SDS011;11982;50.810;4.442;2022-12-18T04:57:03;53.78;;;20.67;;
23608;SDS011;11982;50.810;4.442;2022-12-18T04:59:28;51.55;;;20.67;;
23608;SDS011;11982;50.810;4.442;2022-12-18T05:01:54;44.40;;;19.08;;
23608;SDS011;11982;50.810;4.442;2022-12-18T05:04:20;45.88;;;19.85;;
23608;SDS011;11982;50.810;4.442;2022-12-18T05:06:45;43.45;;;18.77;;
23608;SDS011;11982;50.810;4.442;2022-12-18T05:09:11;53.30;;;20.13;;
23608;SDS011;11982;50.810;4.442;2022-12-18T05:11:36;44.47;;;19.77;;
23608;SDS011;11982;50.810;4.442;2022-12-18T05:14:02;47.75;;;19.60;;
23608;SDS011;11982;50.810;4.442;2022-12-18T05:16:28;47.38;;;19.48;;
23608;SDS011;11982;50.810;4.442;2022-12-18T05:18:53;48.95;;;18.85;;
23608;SDS011;11982;50.810;4.442;2022-12-18T05:21:19;41.92;;;18.08;;
23608;SDS011;11982;50.810;4.442;2022-12-18T05:23:45;43.50;;;18.95;;
23608;SDS011;11982;50.810;4.442;2022-12-18T05:26:12;50.33;;;20.33;;
23608;SDS011;11982;50.810;4.442;2022-12-18T05:28:44;48.22;;;20.52;;
23608;SDS011;11982;50.810;4.442;2022-12-18T05:31:11;45.15;;;19.42;;
23608;SDS011;11982;50.810;4.442;2022-12-18T05:33:36;45.53;;;19.33;;
23608;SDS011;11982;50.810;4.442;2022-12-18T05:36:03;49.30;;;18.23;;
23608;SDS011;11982;50.810;4.442;2022-12-18T05:38:31;43.47;;;18.95;;
23608;SDS011;11982;50.810;4.442;2022-12-18T05:40:58;46.05;;;17.35;;
23608;SDS011;11982;50.810;4.442;2022-12-18T05:43:25;44.63;;;18.45;;
23608;SDS011;11982;50.810;4.442;2022-12-18T05:45:52;34.50;;;14.95;;
23608;SDS011;11982;50.810;4.442;2022-12-18T05:48:18;40.78;;;16.35;;
23608;SDS011;11982;50.810;4.442;2022-12-18T05:50:45;39.72;;;15.55;;
23608;SDS011;11982;50.810;4.442;2022-12-18T05:53:13;36.42;;;15.63;;
23608;SDS011;11982;50.810;4.442;2022-12-18T05:55:40;36.47;;;14.38;;
23608;SDS011;11982;50.810;4.442;2022-12-18T05:58:06;32.80;;;13.90;;
23608;SDS011;11982;50.810;4.442;2022-12-18T06:00:34;32.50;;;13.73;;
23608;SDS011;11982;50.810;4.442;2022-12-18T06:03:04;32.25;;;13.30;;
23608;SDS011;11982;50.810;4.442;2022-12-18T06:05:34;26.95;;;11.98;;
23608;SDS011;11982;50.810;4.442;2022-12-18T06:08:04;31.80;;;12.32;;
23608;SDS011;11982;50.810;4.442;2022-12-18T06:10:29;24.63;;;12.00;;
23608;SDS011;11982;50.810;4.442;2022-12-18T06:12:55;27.73;;;11.88;;
23608;SDS011;11982;50.810;4.442;2022-12-18T06:15:21;33.15;;;12.00;;
23608;SDS011;11982;50.810;4.442;2022-12-18T06:17:46;29.80;;;11.38;;
23608;SDS011;11982;50.810;4.442;2022-12-18T06:20:12;27.70;;;12.27;;
23608;SDS011;11982;50.810;4.442;2022-12-18T06:22:38;29.60;;;12.73;;
23608;SDS011;11982;50.810;4.442;2022-12-18T06:25:03;29.00;;;12.45;;
23608;SDS011;11982;50.810;4.442;2022-12-18T06:27:30;30.67;;;13.25;;
23608;SDS011;11982;50.810;4.442;2022-12-18T06:29:58;26.92;;;11.68;;
23608;SDS011;11982;50.810;4.442;2022-12-18T06:32:24;24.70;;;11.27;;
23608;SDS011;11982;50.810;4.442;2022-12-18T06:34:50;26.65;;;11.45;;
23608;SDS011;11982;50.810;4.442;2022-12-18T06:37:15;28.30;;;12.80;;
23608;SDS011;11982;50.810;4.442;2022-12-18T06:39:41;27.35;;;12.07;;
23608;SDS011;11982;50.810;4.442;2022-12-18T06:42:07;31.85;;;12.27;;
23608;SDS011;11982;50.810;4.442;2022-12-18T06:44:32;28.77;;;12.68;;
23608;SDS011;11982;50.810;4.442;2022-12-18T06:46:58;27.17;;;11.70;;
23608;SDS011;11982;50.810;4.442;2022-12-18T06:49:24;26.83;;;12.43;;
23608;SDS011;11982;50.810;4.442;2022-12-18T06:51:50;30.30;;;12.15;;
23608;SDS011;11982;50.810;4.442;2022-12-18T06:54:15;31.83;;;13.02;;
23608;SDS011;11982;50.810;4.442;2022-12-18T06:56:41;27.10;;;11.98;;
23608;SDS011;11982;50.810;4.442;2022-12-18T06:59:06;28.63;;;12.77;;
23608;SDS011;11982;50.810;4.442;2022-12-18T07:01:32;28.27;;;12.52;;
23608;SDS011;11982;50.810;4.442;2022-12-18T07:03:58;27.23;;;12.40;;
23608;SDS011;11982;50.810;4.442;2022-12-18T07:06:24;29.63;;;12.02;;
23608;SDS011;11982;50.810;4.442;2022-12-18T07:08:51;29.98;;;12.40;;
23608;SDS011;11982;50.810;4.442;2022-12-18T07:11:18;26.13;;;11.48;;
23608;SDS011;11982;50.810;4.442;2022-12-18T07:13:45;24.15;;;11.05;;
23608;SDS011;11982;50.810;4.442;2022-12-18T07:16:12;24.52;;;11.45;;
23608;SDS011;11982;50.810;4.442;2022-12-18T07:18:43;27.13;;;10.73;;
23608;SDS011;11982;50.810;4.442;2022-12-18T07:21:10;29.67;;;13.48;;
23608;SDS011;11982;50.810;4.442;2022-12-18T07:23:41;34.65;;;14.88;;
23608;SDS011;11982;50.810;4.442;2022-12-18T07:26:08;33.50;;;14.88;;
23608;SDS011;11982;50.810;4.442;2022-12-18T07:28:36;34.00;;;15.57;;
23608;SDS011;11982;50.810;4.442;2022-12-18T07:31:03;33.95;;;15.35;;
23608;SDS011;11982;50.810;4.442;2022-12-18T07:33:33;30.35;;;14.18;;
23608;SDS011;11982;50.810;4.442;2022-12-18T07:36:00;26.65;;;12.10;;
23608;SDS011;11982;50.810;4.442;2022-12-18T07:38:26;28.15;;;12.25;;
23608;SDS011;11982;50.810;4.442;2022-12-18T07:40:52;26.17;;;11.70;;
23608;SDS011;11982;50.810;4.442;2022-12-18T07:43:17;27.80;;;12.02;;
23608;SDS011;11982;50.810;4.442;2022-12-18T07:45:43;26.08;;;11.88;;
23608;SDS011;11982;50.810;4.442;2022-12-18T07:48:09;21.98;;;10.35;;
23608;SDS011;11982;50.810;4.442;2022-12-18T07:50:35;26.33;;;12.20;;
23608;SDS011;11982;50.810;4.442;2022-12-18T07:53:01;27.88;;;13.50;;
23608;SDS011;11982;50.810;4.442;2022-12-18T07:55:29;26.17;;;11.25;;
23608;SDS011;11982;50.810;4.442;2022-12-18T07:57:55;27.35;;;11.70;;
23608;SDS011;11982;50.810;4.442;2022-12-18T08:00:21;25.35;;;12.13;;
23608;SDS011;11982;50.810;4.442;2022-12-18T08:02:47;27.48;;;11.50;;
23608;SDS011;11982;50.810;4.442;2022-12-18T08:05:12;23.13;;;11.70;;
23608;SDS011;11982;50.810;4.442;2022-12-18T08:07:39;24.05;;;11.73;;
23608;SDS011;11982;50.810;4.442;2022-12-18T08:10:05;29.08;;;12.95;;
23608;SDS011;11982;50.810;4.442;2022-12-18T08:12:31;23.67;;;10.63;;
23608;SDS011;11982;50.810;4.442;2022-12-18T08:14:57;25.05;;;11.75;;
23608;SDS011;11982;50.810;4.442;2022-12-18T08:17:22;22.70;;;11.80;;
23608;SDS011;11982;50.810;4.442;2022-12-18T08:19:48;22.05;;;10.90;;
23608;SDS011;11982;50.810;4.442;2022-12-18T08:22:14;26.55;;;11.95;;
23608;SDS011;11982;50.810;4.442;2022-12-18T08:24:40;25.20;;;12.13;;
23608;SDS011;11982;50.810;4.442;2022-12-18T08:27:05;26.42;;;11.95;;
23608;SDS011;11982;50.810;4.442;2022-12-18T08:29:31;23.27;;;11.75;;
23608;SDS011;11982;50.810;4.442;2022-12-18T08:31:57;23.92;;;11.90;;
23608;SDS011;11982;50.810;4.442;2022-12-18T08:34:22;25.60;;;12.77;;
23608;SDS011;11982;50.810;4.442;2022-12-18T08:36:48;27.73;;;12.70;;
23608;SDS011;11982;50.810;4.442;2022-12-18T08:39:14;25.70;;;12.80;;
23608;SDS011;11982;50.810;4.442;2022-12-18T08:41:39;30.60;;;12.95;;
23608;SDS011;11982;50.810;4.442;2022-12-18T08:44:07;29.60;;;13.18;;
23608;SDS011;11982;50.810;4.442;2022-12-18T08:46:51;26.17;;;12.23;;
23608;SDS011;11982;50.810;4.442;2022-12-18T08:49:16;27.00;;;12.57;;
23608;SDS011;11982;50.810;4.442;2022-12-18T08:51:42;27.88;;;12.27;;
23608;SDS011;11982;50.810;4.442;2022-12-18T08:54:09;28.23;;;13.35;;
23608;SDS011;11982;50.810;4.442;2022-12-18T08:56:36;30.20;;;14.95;;
23608;SDS011;11982;50.810;4.442;2022-12-18T08:59:02;26.83;;;13.18;;
23608;SDS011;11982;50.810;4.442;2022-12-18T09:01:29;29.42;;;14.30;;
23608;SDS011;11982;50.810;4.442;2022-12-18T09:03:54;30.25;;;12.95;;
23608;SDS011;11982;50.810;4.442;2022-12-18T09:06:20;28.77;;;13.43;;
23608;SDS011;11982;50.810;4.442;2022-12-18T09:08:47;33.25;;;14.68;;
23608;SDS011;11982;50.810;4.442;2022-12-18T09:11:14;28.52;;;14.32;;
23608;SDS011;11982;50.810;4.442;2022-12-18T09:13:44;29.73;;;14.05;;
23608;SDS011;11982;50.810;4.442;2022-12-18T09:16:10;33.33;;;15.48;;
23608;SDS011;11982;50.810;4.442;2022-12-18T09:18:35;34.60;;;15.27;;
23608;SDS011;11982;50.810;4.442;2022-12-18T09:21:07;36.78;;;18.05;;
23608;SDS011;11982;50.810;4.442;2022-12-18T09:23:40;33.47;;;15.27;;
23608;SDS011;11982;50.810;4.442;2022-12-18T09:26:06;39.13;;;19.55;;
23608;SDS011;11982;50.810;4.442;2022-12-18T09:28:32;32.95;;;15.93;;
23608;SDS011;11982;50.810;4.442;2022-12-18T09:30:58;35.38;;;18.05;;
23608;SDS011;11982;50.810;4.442;2022-12-18T09:33:23;55.00;;;34.05;;
23608;SDS011;11982;50.810;4.442;2022-12-18T09:35:49;36.55;;;17.95;;
23608;SDS011;11982;50.810;4.442;2022-12-18T09:38:17;37.67;;;16.65;;
23608;SDS011;11982;50.810;4.442;2022-12-18T09:40:45;38.67;;;17.33;;
23608;SDS011;11982;50.810;4.442;2022-12-18T09:43:26;44.58;;;22.98;;
23608;SDS011;11982;50.810;4.442;2022-12-18T09:46:07;48.28;;;21.80;;
23608;SDS011;11982;50.810;4.442;2022-12-18T09:48:40;50.75;;;24.42;;
23608;SDS011;11982;50.810;4.442;2022-12-18T09:51:13;63.38;;;36.55;;
23608;SDS011;11982;50.810;4.442;2022-12-18T09:53:44;41.43;;;23.40;;
23608;SDS011;11982;50.810;4.442;2022-12-18T09:56:19;45.35;;;26.50;;
23608;SDS011;11982;50.810;4.442;2022-12-18T09:58:53;39.67;;;21.17;;
23608;SDS011;11982;50.810;4.442;2022-12-18T10:01:23;38.55;;;20.25;;
23608;SDS011;11982;50.810;4.442;2022-12-18T10:03:50;47.75;;;28.50;;
23608;SDS011;11982;50.810;4.442;2022-12-18T10:09:07;45.05;;;22.88;;
23608;SDS011;11982;50.810;4.442;2022-12-18T10:14:21;60.65;;;28.92;;
23608;SDS011;11982;50.810;4.442;2022-12-18T10:27:57;40.13;;;18.92;;
23608;SDS011;11982;50.810;4.442;2022-12-18T10:30:32;44.10;;;20.75;;
23608;SDS011;11982;50.810;4.442;2022-12-18T10:33:02;39.80;;;18.90;;
23608;SDS011;11982;50.810;4.442;2022-12-18T10:35:28;44.85;;;21.10;;
23608;SDS011;11982;50.810;4.442;2022-12-18T10:38:01;43.95;;;22.17;;
23608;SDS011;11982;50.810;4.442;2022-12-18T10:40:32;99.10;;;46.33;;
23608;SDS011;11982;50.810;4.442;2022-12-18T10:43:05;43.30;;;22.67;;
23608;SDS011;11982;50.810;4.442;2022-12-18T10:45:36;45.45;;;24.08;;
23608;SDS011;11982;50.810;4.442;2022-12-18T10:48:02;50.85;;;24.90;;
23608;SDS011;11982;50.810;4.442;2022-12-18T10:50:34;42.22;;;21.17;;
23608;SDS011;11982;50.810;4.442;2022-12-18T10:53:03;41.45;;;20.17;;
23608;SDS011;11982;50.810;4.442;2022-12-18T10:55:36;43.50;;;23.30;;
23608;SDS011;11982;50.810;4.442;2022-12-18T10:58:15;38.15;;;20.60;;
23608;SDS011;11982;50.810;4.442;2022-12-18T11:03:34;38.15;;;19.13;;
23608;SDS011;11982;50.810;4.442;2022-12-18T11:06:04;35.05;;;19.13;;
23608;SDS011;11982;50.810;4.442;2022-12-18T11:08:34;39.75;;;19.45;;
23608;SDS011;11982;50.810;4.442;2022-12-18T11:11:00;38.17;;;18.13;;
23608;SDS011;11982;50.810;4.442;2022-12-18T11:13:27;39.05;;;19.98;;
23608;SDS011;11982;50.810;4.442;2022-12-18T11:15:54;43.28;;;21.73;;
23608;SDS011;11982;50.810;4.442;2022-12-18T11:18:33;38.53;;;16.90;;
23608;SDS011;11982;50.810;4.442;2022-12-18T11:23:30;43.47;;;21.85;;
23608;SDS011;11982;50.810;4.442;2022-12-18T11:25:57;37.75;;;21.00;;
23608;SDS011;11982;50.810;4.442;2022-12-18T11:28:41;43.63;;;22.88;;
23608;SDS011;11982;50.810;4.442;2022-12-18T11:36:41;35.53;;;18.77;;
23608;SDS011;11982;50.810;4.442;2022-12-18T11:39:14;36.53;;;18.48;;
23608;SDS011;11982;50.810;4.442;2022-12-18T11:42:05;37.17;;;19.25;;
23608;SDS011;11982;50.810;4.442;2022-12-18T11:44:40;34.42;;;19.15;;
23608;SDS011;11982;50.810;4.442;2022-12-18T11:50:13;37.10;;;18.63;;
23608;SDS011;11982;50.810;4.442;2022-12-18T11:52:44;35.07;;;19.20;;
23608;SDS011;11982;50.810;4.442;2022-12-18T11:55:11;37.97;;;21.13;;
23608;SDS011;11982;50.810;4.442;2022-12-18T12:00:16;37.03;;;19.35;;
23608;SDS011;11982;50.810;4.442;2022-12-18T12:31:41;37.65;;;23.17;;
23608;SDS011;11982;50.810;4.442;2022-12-18T12:34:34;36.38;;;18.05;;
23608;SDS011;11982;50.810;4.442;2022-12-18T12:38:06;33.17;;;16.58;;
23608;SDS011;11982;50.810;4.442;2022-12-18T12:40:29;37.10;;;16.83;;
23608;SDS011;11982;50.810;4.442;2022-12-18T12:43:03;35.45;;;17.23;;
23608;SDS011;11982;50.810;4.442;2022-12-18T12:51:02;32.55;;;17.27;;
23608;SDS011;11982;50.810;4.442;2022-12-18T12:53:41;38.55;;;17.83;;
23608;SDS011;11982;50.810;4.442;2022-12-18T12:56:08;44.85;;;27.88;;
23608;SDS011;11982;50.810;4.442;2022-12-18T13:01:32;67.13;;;45.90;;
23608;SDS011;11982;50.810;4.442;2022-12-18T13:20:41;45.33;;;22.27;;
23608;SDS011;11982;50.810;4.442;2022-12-18T13:34:16;48.25;;;22.70;;
23608;SDS011;11982;50.810;4.442;2022-12-18T13:36:55;46.33;;;23.63;;
23608;SDS011;11982;50.810;4.442;2022-12-18T13:39:39;39.50;;;18.95;;
23608;SDS011;11982;50.810;4.442;2022-12-18T13:44:32;58.28;;;27.70;;
23608;SDS011;11982;50.810;4.442;2022-12-18T13:47:05;54.88;;;23.63;;
23608;SDS011;11982;50.810;4.442;2022-12-18T13:50:22;39.90;;;19.52;;
23608;SDS011;11982;50.810;4.442;2022-12-18T13:52:49;46.60;;;21.40;;
23608;SDS011;11982;50.810;4.442;2022-12-18T13:55:17;46.90;;;22.05;;
23608;SDS011;11982;50.810;4.442;2022-12-18T13:57:45;49.40;;;23.42;;
23608;SDS011;11982;50.810;4.442;2022-12-18T14:00:27;52.05;;;23.55;;
23608;SDS011;11982;50.810;4.442;2022-12-18T14:02:54;46.78;;;20.67;;
23608;SDS011;11982;50.810;4.442;2022-12-18T14:05:31;53.85;;;22.58;;
23608;SDS011;11982;50.810;4.442;2022-12-18T14:08:08;52.17;;;22.90;;
23608;SDS011;11982;50.810;4.442;2022-12-18T14:10:41;49.03;;;22.33;;
23608;SDS011;11982;50.810;4.442;2022-12-18T14:13:09;56.08;;;23.77;;
23608;SDS011;11982;50.810;4.442;2022-12-18T14:15:41;45.40;;;21.70;;
23608;SDS011;11982;50.810;4.442;2022-12-18T14:18:15;52.22;;;22.70;;
23608;SDS011;11982;50.810;4.442;2022-12-18T14:20:50;50.30;;;20.90;;
23608;SDS011;11982;50.810;4.442;2022-12-18T14:26:23;56.72;;;24.15;;
23608;SDS011;11982;50.810;4.442;2022-12-18T14:28:50;51.50;;;22.85;;
23608;SDS011;11982;50.810;4.442;2022-12-18T14:31:19;58.85;;;25.52;;
23608;SDS011;11982;50.810;4.442;2022-12-18T14:33:46;56.20;;;24.27;;
23608;SDS011;11982;50.810;4.442;2022-12-18T14:36:13;54.78;;;25.10;;
23608;SDS011;11982;50.810;4.442;2022-12-18T14:38:42;52.58;;;24.05;;
23608;SDS011;11982;50.810;4.442;2022-12-18T14:41:12;84.25;;;32.42;;
23608;SDS011;11982;50.810;4.442;2022-12-18T14:43:40;54.63;;;23.85;;
23608;SDS011;11982;50.810;4.442;2022-12-18T14:49:14;49.45;;;22.58;;
23608;SDS011;11982;50.810;4.442;2022-12-18T14:51:55;60.40;;;25.42;;
23608;SDS011;11982;50.810;4.442;2022-12-18T14:54:25;55.25;;;23.88;;
23608;SDS011;11982;50.810;4.442;2022-12-18T14:57:03;58.38;;;24.48;;
23608;SDS011;11982;50.810;4.442;2022-12-18T14:59:52;56.53;;;23.05;;
23608;SDS011;11982;50.810;4.442;2022-12-18T15:04:45;65.32;;;28.77;;
23608;SDS011;11982;50.810;4.442;2022-12-18T15:07:15;64.10;;;27.75;;
23608;SDS011;11982;50.810;4.442;2022-12-18T15:09:42;71.85;;;29.92;;
23608;SDS011;11982;50.810;4.442;2022-12-18T15:12:34;63.17;;;28.42;;
23608;SDS011;11982;50.810;4.442;2022-12-18T15:15:52;59.70;;;25.80;;
23608;SDS011;11982;50.810;4.442;2022-12-18T15:20:39;61.08;;;27.10;;
23608;SDS011;11982;50.810;4.442;2022-12-18T15:25:45;60.10;;;27.13;;
23608;SDS011;11982;50.810;4.442;2022-12-18T15:28:23;61.75;;;26.65;;
23608;SDS011;11982;50.810;4.442;2022-12-18T15:36:22;66.88;;;30.95;;
23608;SDS011;11982;50.810;4.442;2022-12-18T15:38:49;59.47;;;27.33;;
23608;SDS011;11982;50.810;4.442;2022-12-18T15:41:16;63.35;;;25.95;;
23608;SDS011;11982;50.810;4.442;2022-12-18T15:43:44;61.50;;;26.15;;
23608;SDS011;11982;50.810;4.442;2022-12-18T15:46:11;62.20;;;25.73;;
23608;SDS011;11982;50.810;4.442;2022-12-18T15:48:39;52.55;;;22.48;;
23608;SDS011;11982;50.810;4.442;2022-12-18T15:51:19;57.10;;;25.92;;
23608;SDS011;11982;50.810;4.442;2022-12-18T15:53:50;57.15;;;25.23;;
23608;SDS011;11982;50.810;4.442;2022-12-18T15:56:19;53.67;;;23.92;;
23608;SDS011;11982;50.810;4.442;2022-12-18T15:59:11;55.63;;;23.38;;
23608;SDS011;11982;50.810;4.442;2022-12-18T16:01:42;59.38;;;24.98;;
23608;SDS011;11982;50.810;4.442;2022-12-18T16:04:13;56.40;;;24.58;;
23608;SDS011;11982;50.810;4.442;2022-12-18T16:06:41;52.80;;;23.98;;
23608;SDS011;11982;50.810;4.442;2022-12-18T16:09:07;50.97;;;23.05;;
23608;SDS011;11982;50.810;4.442;2022-12-18T16:11:33;53.53;;;25.38;;
23608;SDS011;11982;50.810;4.442;2022-12-18T16:16:36;53.92;;;23.02;;
23608;SDS011;11982;50.810;4.442;2022-12-18T16:19:02;54.05;;;23.80;;
23608;SDS011;11982;50.810;4.442;2022-12-18T16:21:27;57.60;;;24.80;;
23608;SDS011;11982;50.810;4.442;2022-12-18T16:23:53;57.83;;;26.02;;
23608;SDS011;11982;50.810;4.442;2022-12-18T16:26:19;58.13;;;25.83;;
23608;SDS011;11982;50.810;4.442;2022-12-18T16:28:45;53.78;;;24.08;;
23608;SDS011;11982;50.810;4.442;2022-12-18T16:31:10;59.45;;;25.98;;
23608;SDS011;11982;50.810;4.442;2022-12-18T16:33:36;62.53;;;29.00;;
23608;SDS011;11982;50.810;4.442;2022-12-18T16:36:02;54.47;;;23.95;;
23608;SDS011;11982;50.810;4.442;2022-12-18T16:38:27;54.67;;;25.10;;
23608;SDS011;11982;50.810;4.442;2022-12-18T16:40:53;56.15;;;23.98;;
23608;SDS011;11982;50.810;4.442;2022-12-18T16:43:37;53.87;;;24.20;;
23608;SDS011;11982;50.810;4.442;2022-12-18T16:46:03;55.50;;;24.13;;
23608;SDS011;11982;50.810;4.442;2022-12-18T16:48:29;59.47;;;24.73;;
23608;SDS011;11982;50.810;4.442;2022-12-18T16:51:01;48.58;;;23.50;;
23608;SDS011;11982;50.810;4.442;2022-12-18T16:53:29;48.97;;;21.45;;
23608;SDS011;11982;50.810;4.442;2022-12-18T16:55:56;48.83;;;21.40;;
23608;SDS011;11982;50.810;4.442;2022-12-18T16:58:22;48.70;;;22.23;;
23608;SDS011;11982;50.810;4.442;2022-12-18T17:00:48;50.90;;;21.27;;